sensor_id;sensor_type;location;lat;lon;timestamp;temperature;humidity
9393;DHT22;4736;52.508;13.422;2023-01-28T08:18:46;21.50;51.40
9393;DHT22;4736;52.508;13.422;2023-01-28T08:33:00;6.40;53.00
9393;DHT22;4736;52.508;13.422;2023-01-28T08:36:04;6.60;50.60
9393;DHT22;4736;52.508;13.422;2023-01-28T08:39:07;5.80;50.40
9393;DHT22;4736;52.508;13.422;2023-01-28T08:42:10;5.00;50.90
9393;DHT22;4736;52.508;13.422;2023-01-28T08:45:13;4.20;51.80
9393;DHT22;4736;52.508;13.422;2023-01-28T08:48:18;3.70;52.70
9393;DHT22;4736;52.508;13.422;2023-01-28T08:51:22;3.30;52.90
9393;DHT22;4736;52.508;13.422;2023-01-28T08:54:25;2.90;53.70
9393;DHT22;4736;52.508;13.422;2023-01-28T08:57:28;2.70;54.60
9393;DHT22;4736;52.508;13.422;2023-01-28T09:00:32;2.40;54.80
9393;DHT22;4736;52.508;13.422;2023-01-28T09:03:37;2.30;55.00
9393;DHT22;4736;52.508;13.422;2023-01-28T09:06:40;2.20;55.30
9393;DHT22;4736;52.508;13.422;2023-01-28T09:09:43;2.10;55.30
9393;DHT22;4736;52.508;13.422;2023-01-28T09:12:46;2.00;56.30
9393;DHT22;4736;52.508;13.422;2023-01-28T09:15:50;2.00;56.20
9393;DHT22;4736;52.508;13.422;2023-01-28T09:18:55;1.90;55.90
9393;DHT22;4736;52.508;13.422;2023-01-28T09:21:58;1.90;55.90
9393;DHT22;4736;52.508;13.422;2023-01-28T09:25:02;2.00;55.90
9393;DHT22;4736;52.508;13.422;2023-01-28T09:28:05;2.00;55.80
9393;DHT22;4736;52.508;13.422;2023-01-28T09:31:10;2.00;55.60
9393;DHT22;4736;52.508;13.422;2023-01-28T09:34:15;2.00;55.60
9393;DHT22;4736;52.508;13.422;2023-01-28T09:37:18;2.00;55.50
9393;DHT22;4736;52.508;13.422;2023-01-28T09:40:29;2.00;55.90
9393;DHT22;4736;52.508;13.422;2023-01-28T09:43:44;2.00;56.50
9393;DHT22;4736;52.508;13.422;2023-01-28T09:46:50;2.00;56.40
9393;DHT22;4736;52.508;13.422;2023-01-28T09:49:58;2.10;56.60
9393;DHT22;4736;52.508;13.422;2023-01-28T09:53:04;2.10;56.70
9393;DHT22;4736;52.508;13.422;2023-01-28T09:56:12;2.10;56.20
9393;DHT22;4736;52.508;13.422;2023-01-28T09:59:19;2.10;56.20
9393;DHT22;4736;52.508;13.422;2023-01-28T10:02:40;2.20;55.70
9393;DHT22;4736;52.508;13.422;2023-01-28T10:05:52;2.20;55.80
9393;DHT22;4736;52.508;13.422;2023-01-28T10:09:30;2.10;56.00
9393;DHT22;4736;52.508;13.422;2023-01-28T10:12:44;2.10;56.20
9393;DHT22;4736;52.508;13.422;2023-01-28T10:16:04;2.20;55.60
9393;DHT22;4736;52.508;13.422;2023-01-28T10:19:13;2.10;55.80
9393;DHT22;4736;52.508;13.422;2023-01-28T10:22:22;2.10;55.20
9393;DHT22;4736;52.508;13.422;2023-01-28T10:25:29;2.00;55.90
9393;DHT22;4736;52.508;13.422;2023-01-28T10:28:33;2.00;56.10
9393;DHT22;4736;52.508;13.422;2023-01-28T10:31:42;2.10;56.20
9393;DHT22;4736;52.508;13.422;2023-01-28T10:34:46;2.10;56.10
9393;DHT22;4736;52.508;13.422;2023-01-28T10:38:06;2.10;56.20
9393;DHT22;4736;52.508;13.422;2023-01-28T10:41:21;2.20;56.20
9393;DHT22;4736;52.508;13.422;2023-01-28T10:44:33;2.20;55.90
9393;DHT22;4736;52.508;13.422;2023-01-28T10:47:40;2.20;55.90
9393;DHT22;4736;52.508;13.422;2023-01-28T10:50:53;2.30;55.70
9393;DHT22;4736;52.508;13.422;2023-01-28T10:53:59;2.30;55.40
9393;DHT22;4736;52.508;13.422;2023-01-28T10:57:06;2.30;55.40
9393;DHT22;4736;52.508;13.422;2023-01-28T11:00:22;2.30;55.80
9393;DHT22;4736;52.508;13.422;2023-01-28T11:03:25;2.30;56.10
9393;DHT22;4736;52.508;13.422;2023-01-28T11:06:31;2.20;56.30
9393;DHT22;4736;52.508;13.422;2023-01-28T11:09:36;2.30;55.50
9393;DHT22;4736;52.508;13.422;2023-01-28T11:12:41;2.30;55.50
9393;DHT22;4736;52.508;13.422;2023-01-28T11:15:48;2.30;55.80
9393;DHT22;4736;52.508;13.422;2023-01-28T11:19:03;2.40;56.10
9393;DHT22;4736;52.508;13.422;2023-01-28T11:22:20;2.30;55.70
9393;DHT22;4736;52.508;13.422;2023-01-28T11:25:29;2.30;55.90
9393;DHT22;4736;52.508;13.422;2023-01-28T11:28:34;2.30;55.70
9393;DHT22;4736;52.508;13.422;2023-01-28T11:31:44;2.30;56.10
9393;DHT22;4736;52.508;13.422;2023-01-28T11:34:51;2.30;56.40
9393;DHT22;4736;52.508;13.422;2023-01-28T11:37:56;2.30;55.50
9393;DHT22;4736;52.508;13.422;2023-01-28T11:41:01;2.20;55.80
9393;DHT22;4736;52.508;13.422;2023-01-28T11:44:13;2.20;56.20
9393;DHT22;4736;52.508;13.422;2023-01-28T11:47:39;2.30;56.50
9393;DHT22;4736;52.508;13.422;2023-01-28T11:50:49;2.20;56.70
9393;DHT22;4736;52.508;13.422;2023-01-28T11:54:16;2.20;56.30
9393;DHT22;4736;52.508;13.422;2023-01-28T11:57:30;2.20;56.60
9393;DHT22;4736;52.508;13.422;2023-01-28T12:00:40;2.10;57.20
9393;DHT22;4736;52.508;13.422;2023-01-28T12:07:29;1.90;59.00
9393;DHT22;4736;52.508;13.422;2023-01-28T12:10:41;1.80;59.70
9393;DHT22;4736;52.508;13.422;2023-01-28T12:13:56;1.70;60.10
9393;DHT22;4736;52.508;13.422;2023-01-28T12:17:14;1.70;60.40
9393;DHT22;4736;52.508;13.422;2023-01-28T12:20:25;1.90;60.50
9393;DHT22;4736;52.508;13.422;2023-01-28T12:23:46;1.80;60.60
9393;DHT22;4736;52.508;13.422;2023-01-28T12:27:02;1.80;60.60
9393;DHT22;4736;52.508;13.422;2023-01-28T12:30:21;1.70;60.90
9393;DHT22;4736;52.508;13.422;2023-01-28T12:33:51;1.70;61.10
9393;DHT22;4736;52.508;13.422;2023-01-28T12:37:06;1.70;61.00
9393;DHT22;4736;52.508;13.422;2023-01-28T12:40:35;1.60;60.90
9393;DHT22;4736;52.508;13.422;2023-01-28T12:43:51;1.50;61.50
9393;DHT22;4736;52.508;13.422;2023-01-28T12:46:59;1.50;61.80
9393;DHT22;4736;52.508;13.422;2023-01-28T12:50:12;1.50;61.20
9393;DHT22;4736;52.508;13.422;2023-01-28T12:53:22;1.50;61.50
9393;DHT22;4736;52.508;13.422;2023-01-28T12:56:30;1.50;61.50
9393;DHT22;4736;52.508;13.422;2023-01-28T12:59:40;1.60;61.50
9393;DHT22;4736;52.508;13.422;2023-01-28T13:02:52;1.60;61.30
9393;DHT22;4736;52.508;13.422;2023-01-28T13:06:01;1.50;61.30
9393;DHT22;4736;52.508;13.422;2023-01-28T13:09:14;1.50;61.30
9393;DHT22;4736;52.508;13.422;2023-01-28T13:12:19;1.50;61.20
9393;DHT22;4736;52.508;13.422;2023-01-28T13:15:23;1.50;61.20
9393;DHT22;4736;52.508;13.422;2023-01-28T13:18:33;1.40;61.20
9393;DHT22;4736;52.508;13.422;2023-01-28T13:21:44;1.40;61.40
9393;DHT22;4736;52.508;13.422;2023-01-28T13:24:50;1.50;61.20
9393;DHT22;4736;52.508;13.422;2023-01-28T13:27:57;1.50;61.60
9393;DHT22;4736;52.508;13.422;2023-01-28T13:31:02;1.50;61.90
9393;DHT22;4736;52.508;13.422;2023-01-28T13:37:32;1.70;62.50
9393;DHT22;4736;52.508;13.422;2023-01-28T13:40:38;1.80;62.70
9393;DHT22;4736;52.508;13.422;2023-01-28T13:43:42;1.80;62.20
9393;DHT22;4736;52.508;13.422;2023-01-28T13:46:45;1.80;62.20
9393;DHT22;4736;52.508;13.422;2023-01-28T13:49:54;1.80;62.40
9393;DHT22;4736;52.508;13.422;2023-01-28T13:53:01;1.90;62.20
9393;DHT22;4736;52.508;13.422;2023-01-28T13:56:14;1.90;61.60
9393;DHT22;4736;52.508;13.422;2023-01-28T13:59:38;1.90;61.80
9393;DHT22;4736;52.508;13.422;2023-01-28T14:03:11;2.00;62.10
9393;DHT22;4736;52.508;13.422;2023-01-28T14:06:48;2.00;61.90
9393;DHT22;4736;52.508;13.422;2023-01-28T14:10:17;2.10;62.00
9393;DHT22;4736;52.508;13.422;2023-01-28T14:13:48;2.10;61.50
9393;DHT22;4736;52.508;13.422;2023-01-28T14:16:56;2.00;61.30
9393;DHT22;4736;52.508;13.422;2023-01-28T14:20:00;2.10;61.30
9393;DHT22;4736;52.508;13.422;2023-01-28T14:23:15;2.00;60.90
9393;DHT22;4736;52.508;13.422;2023-01-28T14:26:38;2.10;60.30
9393;DHT22;4736;52.508;13.422;2023-01-28T14:29:54;2.10;59.90
9393;DHT22;4736;52.508;13.422;2023-01-28T14:33:01;2.00;59.30
9393;DHT22;4736;52.508;13.422;2023-01-28T14:36:04;2.00;58.60
9393;DHT22;4736;52.508;13.422;2023-01-28T14:39:15;2.00;58.90
9393;DHT22;4736;52.508;13.422;2023-01-28T14:42:21;2.00;59.10
9393;DHT22;4736;52.508;13.422;2023-01-28T14:45:38;2.00;58.90
9393;DHT22;4736;52.508;13.422;2023-01-28T14:48:53;2.00;58.90
9393;DHT22;4736;52.508;13.422;2023-01-28T14:52:11;2.00;58.70
9393;DHT22;4736;52.508;13.422;2023-01-28T14:55:28;2.00;58.10
9393;DHT22;4736;52.508;13.422;2023-01-28T14:58:37;1.90;57.20
9393;DHT22;4736;52.508;13.422;2023-01-28T15:01:44;1.90;56.90
9393;DHT22;4736;52.508;13.422;2023-01-28T15:04:48;1.90;57.20
9393;DHT22;4736;52.508;13.422;2023-01-28T15:07:52;1.80;57.10
9393;DHT22;4736;52.508;13.422;2023-01-28T15:10:59;1.70;57.00
9393;DHT22;4736;52.508;13.422;2023-01-28T15:14:03;1.70;57.20
9393;DHT22;4736;52.508;13.422;2023-01-28T15:17:18;1.70;57.20
9393;DHT22;4736;52.508;13.422;2023-01-28T15:20:24;1.60;57.60
9393;DHT22;4736;52.508;13.422;2023-01-28T15:23:31;1.50;57.90
9393;DHT22;4736;52.508;13.422;2023-01-28T15:26:36;1.40;57.90
9393;DHT22;4736;52.508;13.422;2023-01-28T15:29:39;1.50;58.10
9393;DHT22;4736;52.508;13.422;2023-01-28T15:32:42;1.40;58.40
9393;DHT22;4736;52.508;13.422;2023-01-28T15:35:46;1.40;58.00
9393;DHT22;4736;52.508;13.422;2023-01-28T15:38:49;1.40;58.00
9393;DHT22;4736;52.508;13.422;2023-01-28T15:41:55;1.20;58.10
9393;DHT22;4736;52.508;13.422;2023-01-28T15:44:59;1.20;58.30
9393;DHT22;4736;52.508;13.422;2023-01-28T15:48:05;1.30;58.40
9393;DHT22;4736;52.508;13.422;2023-01-28T15:51:18;1.30;58.30
9393;DHT22;4736;52.508;13.422;2023-01-28T15:54:21;1.30;58.40
9393;DHT22;4736;52.508;13.422;2023-01-28T15:57:28;1.20;58.30
9393;DHT22;4736;52.508;13.422;2023-01-28T16:00:32;1.20;58.20
9393;DHT22;4736;52.508;13.422;2023-01-28T16:03:37;1.30;58.60
9393;DHT22;4736;52.508;13.422;2023-01-28T16:06:41;1.30;58.20
9393;DHT22;4736;52.508;13.422;2023-01-28T16:09:50;1.20;58.50
9393;DHT22;4736;52.508;13.422;2023-01-28T16:13:00;1.20;58.70
9393;DHT22;4736;52.508;13.422;2023-01-28T16:16:06;1.20;58.90
9393;DHT22;4736;52.508;13.422;2023-01-28T16:19:20;1.20;59.10
9393;DHT22;4736;52.508;13.422;2023-01-28T16:22:32;1.20;59.40
9393;DHT22;4736;52.508;13.422;2023-01-28T16:25:35;1.10;59.50
9393;DHT22;4736;52.508;13.422;2023-01-28T16:28:40;1.10;59.50
9393;DHT22;4736;52.508;13.422;2023-01-28T16:31:43;1.10;59.00
9393;DHT22;4736;52.508;13.422;2023-01-28T16:34:46;1.10;58.90
9393;DHT22;4736;52.508;13.422;2023-01-28T16:37:49;1.10;58.70
9393;DHT22;4736;52.508;13.422;2023-01-28T16:40:53;1.00;59.00
9393;DHT22;4736;52.508;13.422;2023-01-28T16:43:57;1.00;59.30
9393;DHT22;4736;52.508;13.422;2023-01-28T16:47:04;1.00;58.70
9393;DHT22;4736;52.508;13.422;2023-01-28T16:50:09;1.00;58.50
9393;DHT22;4736;52.508;13.422;2023-01-28T16:53:18;1.00;58.90
9393;DHT22;4736;52.508;13.422;2023-01-28T16:56:23;1.00;58.80
9393;DHT22;4736;52.508;13.422;2023-01-28T16:59:48;1.00;58.90
9393;DHT22;4736;52.508;13.422;2023-01-28T17:02:52;1.00;58.80
9393;DHT22;4736;52.508;13.422;2023-01-28T17:05:56;1.00;58.60
9393;DHT22;4736;52.508;13.422;2023-01-28T17:08:59;0.90;58.60
9393;DHT22;4736;52.508;13.422;2023-01-28T17:12:02;1.00;59.00
9393;DHT22;4736;52.508;13.422;2023-01-28T17:15:09;0.90;59.10
9393;DHT22;4736;52.508;13.422;2023-01-28T17:18:12;1.00;58.90
9393;DHT22;4736;52.508;13.422;2023-01-28T17:21:16;0.90;59.00
9393;DHT22;4736;52.508;13.422;2023-01-28T17:24:19;0.90;58.60
9393;DHT22;4736;52.508;13.422;2023-01-28T17:27:22;0.80;59.10
9393;DHT22;4736;52.508;13.422;2023-01-28T17:30:27;0.90;59.00
9393;DHT22;4736;52.508;13.422;2023-01-28T17:33:30;0.90;58.70
9393;DHT22;4736;52.508;13.422;2023-01-28T17:36:33;0.90;58.70
9393;DHT22;4736;52.508;13.422;2023-01-28T17:39:37;1.00;58.70
9393;DHT22;4736;52.508;13.422;2023-01-28T17:42:40;1.00;58.70
9393;DHT22;4736;52.508;13.422;2023-01-28T17:45:44;0.90;58.70
9393;DHT22;4736;52.508;13.422;2023-01-28T17:48:48;0.80;59.20
9393;DHT22;4736;52.508;13.422;2023-01-28T17:51:51;0.80;59.30
9393;DHT22;4736;52.508;13.422;2023-01-28T17:54:54;0.80;59.70
9393;DHT22;4736;52.508;13.422;2023-01-28T17:57:57;0.80;59.70
9393;DHT22;4736;52.508;13.422;2023-01-28T18:01:08;0.80;59.70
9393;DHT22;4736;52.508;13.422;2023-01-28T18:04:11;0.80;59.90
9393;DHT22;4736;52.508;13.422;2023-01-28T18:07:14;0.80;59.70
9393;DHT22;4736;52.508;13.422;2023-01-28T18:10:18;0.70;59.70
9393;DHT22;4736;52.508;13.422;2023-01-28T18:13:21;0.70;59.60
9393;DHT22;4736;52.508;13.422;2023-01-28T18:16:26;0.60;59.40
9393;DHT22;4736;52.508;13.422;2023-01-28T18:19:29;0.60;59.50
9393;DHT22;4736;52.508;13.422;2023-01-28T18:22:32;0.50;59.80
9393;DHT22;4736;52.508;13.422;2023-01-28T18:25:35;0.50;59.40
9393;DHT22;4736;52.508;13.422;2023-01-28T18:28:38;0.50;59.50
9393;DHT22;4736;52.508;13.422;2023-01-28T18:31:42;0.40;59.50
9393;DHT22;4736;52.508;13.422;2023-01-28T18:34:45;0.40;59.80
9393;DHT22;4736;52.508;13.422;2023-01-28T18:37:48;0.40;59.90
9393;DHT22;4736;52.508;13.422;2023-01-28T18:40:53;0.30;59.90
9393;DHT22;4736;52.508;13.422;2023-01-28T18:43:57;0.20;60.00
9393;DHT22;4736;52.508;13.422;2023-01-28T18:47:01;0.20;60.10
9393;DHT22;4736;52.508;13.422;2023-01-28T18:50:05;0.20;60.20
9393;DHT22;4736;52.508;13.422;2023-01-28T18:53:08;0.10;60.20
9393;DHT22;4736;52.508;13.422;2023-01-28T18:56:11;0.10;60.60
9393;DHT22;4736;52.508;13.422;2023-01-28T18:59:14;0.10;60.70
9393;DHT22;4736;52.508;13.422;2023-01-28T19:02:19;0.10;60.70
9393;DHT22;4736;52.508;13.422;2023-01-28T19:05:22;0.10;60.80
9393;DHT22;4736;52.508;13.422;2023-01-28T19:08:25;0.20;61.00
9393;DHT22;4736;52.508;13.422;2023-01-28T19:11:29;0.00;61.10
9393;DHT22;4736;52.508;13.422;2023-01-28T19:14:32;0.00;61.30
9393;DHT22;4736;52.508;13.422;2023-01-28T19:17:37;0.10;61.30
9393;DHT22;4736;52.508;13.422;2023-01-28T19:20:40;0.00;61.60
9393;DHT22;4736;52.508;13.422;2023-01-28T19:23:43;0.10;61.40
9393;DHT22;4736;52.508;13.422;2023-01-28T19:26:51;0.10;61.40
9393;DHT22;4736;52.508;13.422;2023-01-28T19:29:55;0.00;61.60
9393;DHT22;4736;52.508;13.422;2023-01-28T19:32:59;0.00;61.70
9393;DHT22;4736;52.508;13.422;2023-01-28T19:36:03;0.10;61.60
9393;DHT22;4736;52.508;13.422;2023-01-28T19:39:07;0.00;61.80
9393;DHT22;4736;52.508;13.422;2023-01-28T19:42:10;0.10;61.80
9393;DHT22;4736;52.508;13.422;2023-01-28T19:45:14;0.10;61.70
9393;DHT22;4736;52.508;13.422;2023-01-28T19:48:19;0.00;61.80
9393;DHT22;4736;52.508;13.422;2023-01-28T19:51:22;0.00;62.00
9393;DHT22;4736;52.508;13.422;2023-01-28T19:54:26;0.00;61.90
9393;DHT22;4736;52.508;13.422;2023-01-28T19:57:29;0.00;62.00
9393;DHT22;4736;52.508;13.422;2023-01-28T20:00:33;0.00;62.00
9393;DHT22;4736;52.508;13.422;2023-01-28T20:03:37;0.00;62.00
9393;DHT22;4736;52.508;13.422;2023-01-28T20:06:41;0.00;62.30
9393;DHT22;4736;52.508;13.422;2023-01-28T20:09:44;0.00;62.50
9393;DHT22;4736;52.508;13.422;2023-01-28T20:12:48;0.00;62.50
9393;DHT22;4736;52.508;13.422;2023-01-28T20:15:51;0.00;62.50
9393;DHT22;4736;52.508;13.422;2023-01-28T20:18:58;0.00;62.50
9393;DHT22;4736;52.508;13.422;2023-01-28T20:22:01;0.00;62.50
9393;DHT22;4736;52.508;13.422;2023-01-28T20:25:07;0.00;62.70
9393;DHT22;4736;52.508;13.422;2023-01-28T20:28:10;0.00;62.60
9393;DHT22;4736;52.508;13.422;2023-01-28T20:31:13;-0.10;62.80
9393;DHT22;4736;52.508;13.422;2023-01-28T20:34:19;-0.10;63.00
9393;DHT22;4736;52.508;13.422;2023-01-28T20:37:22;-0.10;63.20
9393;DHT22;4736;52.508;13.422;2023-01-28T20:40:29;-0.10;63.20
9393;DHT22;4736;52.508;13.422;2023-01-28T20:43:33;-0.20;63.50
9393;DHT22;4736;52.508;13.422;2023-01-28T20:46:41;-0.20;63.50
9393;DHT22;4736;52.508;13.422;2023-01-28T20:49:46;-0.20;63.70
9393;DHT22;4736;52.508;13.422;2023-01-28T20:52:49;-0.20;63.90
9393;DHT22;4736;52.508;13.422;2023-01-28T20:55:55;-0.30;64.10
9393;DHT22;4736;52.508;13.422;2023-01-28T20:59:00;-0.30;64.00
9393;DHT22;4736;52.508;13.422;2023-01-28T21:02:03;-0.20;63.90
9393;DHT22;4736;52.508;13.422;2023-01-28T21:05:09;-0.20;64.00
9393;DHT22;4736;52.508;13.422;2023-01-28T21:08:14;-0.20;63.90
9393;DHT22;4736;52.508;13.422;2023-01-28T21:11:18;-0.30;64.10
9393;DHT22;4736;52.508;13.422;2023-01-28T21:14:21;-0.30;64.20
9393;DHT22;4736;52.508;13.422;2023-01-28T21:17:25;-0.30;64.10
9393;DHT22;4736;52.508;13.422;2023-01-28T21:20:31;-0.40;64.30
9393;DHT22;4736;52.508;13.422;2023-01-28T21:23:34;-0.40;64.60
9393;DHT22;4736;52.508;13.422;2023-01-28T21:26:37;-0.50;64.50
9393;DHT22;4736;52.508;13.422;2023-01-28T21:29:43;-0.50;64.70
9393;DHT22;4736;52.508;13.422;2023-01-28T21:32:47;-0.60;65.10
9393;DHT22;4736;52.508;13.422;2023-01-28T21:35:51;-0.60;65.10
9393;DHT22;4736;52.508;13.422;2023-01-28T21:38:56;-0.60;65.10
9393;DHT22;4736;52.508;13.422;2023-01-28T21:41:59;-0.70;65.30
9393;DHT22;4736;52.508;13.422;2023-01-28T21:45:03;-0.70;65.40
9393;DHT22;4736;52.508;13.422;2023-01-28T21:48:07;-0.70;65.60
9393;DHT22;4736;52.508;13.422;2023-01-28T21:51:12;-0.70;65.70
9393;DHT22;4736;52.508;13.422;2023-01-28T21:54:33;-0.70;65.80
9393;DHT22;4736;52.508;13.422;2023-01-28T21:57:36;-0.80;65.80
9393;DHT22;4736;52.508;13.422;2023-01-28T22:00:39;-0.90;66.00
9393;DHT22;4736;52.508;13.422;2023-01-28T22:03:42;-0.90;66.20
9393;DHT22;4736;52.508;13.422;2023-01-28T22:06:46;-0.90;66.20
9393;DHT22;4736;52.508;13.422;2023-01-28T22:09:50;-0.90;66.50
9393;DHT22;4736;52.508;13.422;2023-01-28T22:12:54;-1.00;66.50
9393;DHT22;4736;52.508;13.422;2023-01-28T22:15:57;-1.00;66.60
9393;DHT22;4736;52.508;13.422;2023-01-28T22:19:01;-0.90;66.50
9393;DHT22;4736;52.508;13.422;2023-01-28T22:22:06;-1.00;66.60
9393;DHT22;4736;52.508;13.422;2023-01-28T22:25:09;-1.00;66.80
9393;DHT22;4736;52.508;13.422;2023-01-28T22:28:12;-1.00;66.70
9393;DHT22;4736;52.508;13.422;2023-01-28T22:31:17;-1.00;66.60
9393;DHT22;4736;52.508;13.422;2023-01-28T22:34:21;-0.90;66.60
9393;DHT22;4736;52.508;13.422;2023-01-28T22:37:26;-1.00;66.90
9393;DHT22;4736;52.508;13.422;2023-01-28T22:40:29;-1.00;67.00
9393;DHT22;4736;52.508;13.422;2023-01-28T22:43:32;-1.00;67.00
9393;DHT22;4736;52.508;13.422;2023-01-28T22:46:36;-0.90;66.80
9393;DHT22;4736;52.508;13.422;2023-01-28T22:49:40;-0.90;66.60
9393;DHT22;4736;52.508;13.422;2023-01-28T22:52:45;-0.90;66.80
9393;DHT22;4736;52.508;13.422;2023-01-28T22:55:50;-0.90;66.80
9393;DHT22;4736;52.508;13.422;2023-01-28T22:58:54;-0.80;66.70
9393;DHT22;4736;52.508;13.422;2023-01-28T23:01:57;-0.80;66.80
9393;DHT22;4736;52.508;13.422;2023-01-28T23:05:00;-0.80;66.90
9393;DHT22;4736;52.508;13.422;2023-01-28T23:08:05;-0.70;66.70
9393;DHT22;4736;52.508;13.422;2023-01-28T23:11:21;-0.70;66.60
9393;DHT22;4736;52.508;13.422;2023-01-28T23:14:28;-0.70;66.50
9393;DHT22;4736;52.508;13.422;2023-01-28T23:17:54;-0.70;66.60
9393;DHT22;4736;52.508;13.422;2023-01-28T23:21:17;-0.60;66.40
9393;DHT22;4736;52.508;13.422;2023-01-28T23:24:39;-0.50;66.20
9393;DHT22;4736;52.508;13.422;2023-01-28T23:27:43;-0.60;66.50
9393;DHT22;4736;52.508;13.422;2023-01-28T23:30:46;-0.60;66.50
9393;DHT22;4736;52.508;13.422;2023-01-28T23:33:50;-0.60;66.40
9393;DHT22;4736;52.508;13.422;2023-01-28T23:36:53;-0.50;66.30
9393;DHT22;4736;52.508;13.422;2023-01-28T23:39:58;-0.60;66.60
9393;DHT22;4736;52.508;13.422;2023-01-28T23:43:02;-0.60;66.60
9393;DHT22;4736;52.508;13.422;2023-01-28T23:46:06;-0.60;66.60
9393;DHT22;4736;52.508;13.422;2023-01-28T23:49:09;-0.50;66.50
9393;DHT22;4736;52.508;13.422;2023-01-28T23:52:13;-0.60;66.60
9393;DHT22;4736;52.508;13.422;2023-01-28T23:55:20;-0.60;66.70
9393;DHT22;4736;52.508;13.422;2023-01-28T23:58:23;-0.60;66.80
